createdAt,value
2022-10-01T00:00:23.953Z,3.72
2022-10-01T00:02:51.117Z,3.48
2022-10-01T00:05:18.213Z,3.93
2022-10-01T00:07:45.754Z,4.23
2022-10-01T00:10:15.733Z,4.11
2022-10-01T00:12:48.777Z,4.29
2022-10-01T00:15:17.174Z,4.46
2022-10-01T00:17:44.274Z,4.42
2022-10-01T00:20:14.662Z,4.45
2022-10-01T00:22:42.032Z,4.11
2022-10-01T00:25:09.376Z,4.39
2022-10-01T00:27:38.053Z,4.36
2022-10-01T00:30:07.273Z,4.47
2022-10-01T00:32:34.311Z,4.35
2022-10-01T00:35:01.494Z,4.60
2022-10-01T00:37:28.936Z,4.47
2022-10-01T00:39:55.974Z,4.66
2022-10-01T00:42:25.774Z,4.78
2022-10-01T00:44:54.294Z,4.71
2022-10-01T00:47:28.702Z,4.33
2022-10-01T00:50:01.413Z,6.55
2022-10-01T00:52:33.312Z,7.98
2022-10-01T00:55:06.515Z,5.89
2022-10-01T00:57:35.254Z,5.97
2022-10-01T01:00:08.252Z,5.54
2022-10-01T01:02:35.579Z,5.03
2022-10-01T01:05:04.554Z,4.83
2022-10-01T01:07:35.002Z,4.55
2022-10-01T01:10:04.953Z,4.76
2022-10-01T01:12:52.542Z,4.75
2022-10-01T01:15:30.164Z,4.66
2022-10-01T01:18:04.694Z,4.99
2022-10-01T01:20:49.353Z,4.95
2022-10-01T01:23:42.133Z,4.94
2022-10-01T01:26:26.156Z,4.13
2022-10-01T01:29:02.294Z,3.26
2022-10-01T01:31:35.666Z,3.50
2022-10-01T01:34:08.454Z,3.73
2022-10-01T01:36:39.696Z,3.65
2022-10-01T01:39:13.733Z,3.92
2022-10-01T01:41:48.073Z,3.98
2022-10-01T01:44:23.129Z,3.52
2022-10-01T01:46:54.638Z,3.51
2022-10-01T01:49:22.935Z,3.95
2022-10-01T01:51:58.754Z,3.84
2022-10-01T01:54:25.917Z,3.86
2022-10-01T01:56:56.513Z,3.68
2022-10-01T01:59:27.052Z,3.88
2022-10-01T02:01:54.265Z,4.02
2022-10-01T02:04:27.184Z,3.68
2022-10-01T02:07:18.220Z,3.89
2022-10-01T02:09:58.687Z,3.76
2022-10-01T02:12:44.242Z,4.04
2022-10-01T02:15:22.680Z,4.11
2022-10-01T02:18:03.379Z,3.96
2022-10-01T02:20:39.380Z,3.83
2022-10-01T02:23:12.624Z,4.00
2022-10-01T02:25:45.005Z,3.87
2022-10-01T02:28:18.142Z,3.99
2022-10-01T02:30:49.699Z,3.95
2022-10-01T02:33:24.462Z,4.06
2022-10-01T02:35:55.484Z,3.73
2022-10-01T02:38:26.343Z,3.79
2022-10-01T02:40:59.552Z,3.90
2022-10-01T02:43:32.611Z,3.71
2022-10-01T02:46:10.517Z,3.82
2022-10-01T02:48:37.796Z,3.36
2022-10-01T02:51:24.814Z,3.80
2022-10-01T02:53:59.201Z,3.76
2022-10-01T02:56:28.743Z,3.85
2022-10-01T02:58:55.901Z,3.67
2022-10-01T03:01:24.492Z,3.49
2022-10-01T03:03:51.608Z,4.00
2022-10-01T03:06:18.684Z,3.48
2022-10-01T03:08:45.811Z,3.78
2022-10-01T03:11:13.040Z,3.40
2022-10-01T03:13:40.119Z,3.57
2022-10-01T03:16:07.463Z,3.43
2022-10-01T03:18:36.008Z,3.28
2022-10-01T03:21:03.179Z,3.33
2022-10-01T03:23:30.270Z,3.44
2022-10-01T03:25:57.268Z,3.28
2022-10-01T03:28:24.334Z,3.22
2022-10-01T03:30:51.451Z,3.22
2022-10-01T03:33:18.510Z,3.34
2022-10-01T03:35:46.968Z,3.18
2022-10-01T03:38:14.060Z,3.49
2022-10-01T03:40:41.159Z,3.40
2022-10-01T03:43:08.199Z,3.27
2022-10-01T03:45:35.335Z,3.15
2022-10-01T03:48:02.437Z,3.10
2022-10-01T03:50:29.660Z,3.31
2022-10-01T03:52:58.199Z,3.26
2022-10-01T03:55:25.326Z,2.94
2022-10-01T03:57:52.362Z,2.95
2022-10-01T04:00:19.559Z,3.17
2022-10-01T04:02:46.692Z,3.16
2022-10-01T04:05:13.978Z,3.13
2022-10-01T04:07:42.239Z,3.21
2022-10-01T04:10:11.198Z,3.15
2022-10-01T04:12:38.317Z,3.00
2022-10-01T04:15:06.380Z,3.14
2022-10-01T04:17:33.418Z,3.07
2022-10-01T04:20:00.838Z,3.18
2022-10-01T04:22:27.942Z,3.22
2022-10-01T04:24:55.051Z,2.96
2022-10-01T04:27:23.592Z,2.92
2022-10-01T04:29:50.629Z,2.92
2022-10-01T04:32:17.837Z,2.89
2022-10-01T04:34:44.923Z,2.95
2022-10-01T04:37:11.965Z,3.18
2022-10-01T04:39:39.043Z,2.72
2022-10-01T04:42:06.142Z,2.90
2022-10-01T04:44:34.608Z,2.76
2022-10-01T04:47:01.905Z,2.58
2022-10-01T04:49:29.069Z,2.81
2022-10-01T04:51:56.490Z,2.75
2022-10-01T04:54:23.551Z,2.93
2022-10-01T04:56:50.679Z,2.72
2022-10-01T04:59:17.739Z,2.88
2022-10-01T05:01:46.639Z,3.67
2022-10-01T05:04:14.063Z,4.09
2022-10-01T05:06:41.142Z,3.86
2022-10-01T05:09:08.178Z,3.61
2022-10-01T05:11:35.482Z,3.53
2022-10-01T05:14:02.942Z,3.94
2022-10-01T05:16:30.097Z,3.97
2022-10-01T05:18:58.608Z,3.57
2022-10-01T05:21:25.706Z,3.75
2022-10-01T05:23:52.759Z,4.29
2022-10-01T05:26:19.830Z,3.86
2022-10-01T05:28:46.883Z,3.53
2022-10-01T05:31:14.096Z,3.59
2022-10-01T05:33:41.224Z,3.56
2022-10-01T05:36:09.724Z,3.44
2022-10-01T05:38:36.844Z,3.23
2022-10-01T05:41:04.643Z,3.26
2022-10-01T05:43:31.729Z,3.25
2022-10-01T05:46:01.214Z,3.12
2022-10-01T05:48:28.286Z,3.22
2022-10-01T05:50:55.396Z,3.12
2022-10-01T05:53:23.888Z,3.17
2022-10-01T05:55:50.912Z,3.01
2022-10-01T05:58:18.014Z,3.20
2022-10-01T06:00:45.057Z,2.98
2022-10-01T06:03:13.198Z,2.93
2022-10-01T06:05:40.693Z,2.73
2022-10-01T06:08:08.796Z,2.76
2022-10-01T06:10:38.374Z,2.65
2022-10-01T06:13:06.102Z,2.91
2022-10-01T06:15:36.054Z,3.21
2022-10-01T06:18:03.975Z,2.79
2022-10-01T06:20:31.115Z,3.05
2022-10-01T06:22:58.673Z,2.99
2022-10-01T06:25:27.395Z,2.84
2022-10-01T06:27:58.319Z,2.77
2022-10-01T06:30:26.790Z,2.62
2022-10-01T06:32:53.994Z,3.00
2022-10-01T06:35:21.110Z,3.00
2022-10-01T06:37:48.274Z,2.84
2022-10-01T06:40:15.535Z,3.04
2022-10-01T06:42:47.855Z,2.97
2022-10-01T06:45:16.955Z,3.11
2022-10-01T06:47:44.453Z,2.71
2022-10-01T06:50:11.995Z,2.74
2022-10-01T06:52:39.093Z,2.96
2022-10-01T06:55:07.433Z,2.91
2022-10-01T06:57:34.833Z,2.80
2022-10-01T07:00:01.973Z,2.91
2022-10-01T07:02:30.583Z,2.96
2022-10-01T07:04:58.213Z,3.10
2022-10-01T07:07:30.061Z,2.92
2022-10-01T07:09:58.232Z,2.91
2022-10-01T07:12:26.113Z,3.00
2022-10-01T07:14:53.393Z,2.82
2022-10-01T07:17:20.729Z,2.87
2022-10-01T07:19:49.394Z,2.91
2022-10-01T07:22:16.545Z,2.91
2022-10-01T07:24:43.733Z,2.88
2022-10-01T07:27:10.798Z,3.02
2022-10-01T07:29:38.026Z,2.84
2022-10-01T07:32:05.682Z,2.80
2022-10-01T07:34:33.027Z,2.63
2022-10-01T07:37:02.141Z,2.99
2022-10-01T07:39:29.222Z,2.94
2022-10-01T07:41:56.409Z,2.76
2022-10-01T07:44:23.581Z,2.80
2022-10-01T07:46:50.634Z,2.93
2022-10-01T07:49:17.855Z,2.84
2022-10-01T07:51:44.923Z,2.83
2022-10-01T07:54:13.382Z,2.76
2022-10-01T07:56:40.604Z,2.79
2022-10-01T07:59:08.403Z,2.77
2022-10-01T08:01:36.060Z,2.65
2022-10-01T08:04:05.812Z,2.68
2022-10-01T08:06:32.904Z,2.78
2022-10-01T08:08:59.961Z,2.70
2022-10-01T08:11:28.498Z,2.61
2022-10-01T08:13:55.629Z,2.81
2022-10-01T08:16:22.773Z,2.73
2022-10-01T08:18:49.850Z,2.66
2022-10-01T08:21:16.949Z,2.78
2022-10-01T08:23:44.271Z,2.91
2022-10-01T08:26:11.427Z,2.99
2022-10-01T08:28:39.913Z,2.96
2022-10-01T08:31:07.323Z,2.89
2022-10-01T08:33:35.043Z,2.84
2022-10-01T08:36:02.603Z,3.13
2022-10-01T08:38:29.712Z,3.04
2022-10-01T08:41:07.002Z,2.99
2022-10-01T08:43:37.505Z,3.05
2022-10-01T08:46:11.034Z,3.30
2022-10-01T08:48:54.797Z,3.18
2022-10-01T08:51:31.386Z,3.34
2022-10-01T08:54:10.200Z,3.35
2022-10-01T08:56:42.042Z,3.21
2022-10-01T08:59:26.643Z,3.33
2022-10-01T09:01:56.667Z,3.20
2022-10-01T09:04:24.519Z,3.33
2022-10-01T09:07:04.432Z,3.22
2022-10-01T09:09:44.757Z,3.14
2022-10-01T09:12:31.492Z,3.63
2022-10-01T09:15:20.666Z,3.30
2022-10-01T09:18:06.907Z,3.36
2022-10-01T09:20:39.276Z,3.35
2022-10-01T09:23:26.834Z,3.26
2022-10-01T09:25:54.703Z,3.22
2022-10-01T09:28:24.734Z,3.34
2022-10-01T09:30:59.663Z,3.23
2022-10-01T09:33:33.506Z,3.40
2022-10-01T09:36:13.238Z,3.34
2022-10-01T09:38:43.098Z,3.14
2022-10-01T09:41:11.376Z,3.11
2022-10-01T09:43:40.367Z,3.14
2022-10-01T09:46:09.817Z,3.20
2022-10-01T09:48:48.293Z,3.32
2022-10-01T09:51:21.663Z,2.97
2022-10-01T09:54:02.802Z,3.12
2022-10-01T09:56:37.662Z,2.97
2022-10-01T09:59:14.417Z,2.84
2022-10-01T10:01:46.871Z,3.10
2022-10-01T10:04:21.759Z,2.72
2022-10-01T10:06:49.503Z,2.80
2022-10-01T10:09:22.452Z,2.81
2022-10-01T10:11:49.623Z,2.93
2022-10-01T10:14:29.674Z,2.91
2022-10-01T10:16:57.368Z,2.59
2022-10-01T10:19:28.124Z,2.65
2022-10-01T10:21:57.579Z,2.41
2022-10-01T10:24:31.170Z,2.47
2022-10-01T10:27:01.171Z,2.32
2022-10-01T10:29:30.712Z,2.53
2022-10-01T10:31:59.879Z,2.59
2022-10-01T10:34:33.832Z,2.28
2022-10-01T10:37:04.933Z,2.56
2022-10-01T10:39:35.873Z,2.48
2022-10-01T10:42:05.193Z,2.32
2022-10-01T10:44:37.015Z,2.35
2022-10-01T10:47:09.128Z,2.39
2022-10-01T10:49:45.421Z,2.13
2022-10-01T10:52:22.303Z,2.03
2022-10-01T10:54:50.212Z,2.23
2022-10-01T10:57:23.414Z,2.15
2022-10-01T10:59:59.017Z,2.07
2022-10-01T11:02:28.706Z,2.25
2022-10-01T11:05:00.566Z,2.19
2022-10-01T11:07:29.244Z,2.07
2022-10-01T11:10:25.785Z,1.88
2022-10-01T11:13:25.764Z,1.83
2022-10-01T11:16:17.709Z,1.83
2022-10-01T11:19:04.123Z,1.96
2022-10-01T11:21:55.914Z,1.63
2022-10-01T11:24:57.363Z,1.74
2022-10-01T11:27:38.922Z,1.78
2022-10-01T11:30:14.364Z,1.69
2022-10-01T11:32:50.143Z,1.77
2022-10-01T11:35:33.085Z,1.65
2022-10-01T11:38:37.730Z,1.75
2022-10-01T11:41:16.804Z,1.69
2022-10-01T11:43:49.903Z,1.94
2022-10-01T11:46:31.570Z,1.95
2022-10-01T11:49:17.922Z,1.96
2022-10-01T11:51:55.544Z,2.41
2022-10-01T11:54:31.363Z,2.22
2022-10-01T11:57:00.985Z,2.03
2022-10-01T11:59:36.224Z,2.11
2022-10-01T12:02:16.819Z,2.22
2022-10-01T12:04:52.244Z,2.34
2022-10-01T12:07:28.862Z,1.81
2022-10-01T12:10:05.963Z,1.44
2022-10-01T12:12:39.062Z,1.47
2022-10-01T12:15:16.305Z,1.61
2022-10-01T12:17:49.086Z,1.89
2022-10-01T12:20:24.150Z,1.80
2022-10-01T12:22:54.918Z,1.88
2022-10-01T12:25:31.423Z,1.76
2022-10-01T12:28:08.630Z,1.69
2022-10-01T12:30:46.064Z,1.64
2022-10-01T12:33:41.884Z,1.74
2022-10-01T12:36:21.383Z,1.96
2022-10-01T12:39:03.163Z,2.01
2022-10-01T12:41:49.403Z,2.00
2022-10-01T12:44:44.104Z,2.03
2022-10-01T12:47:29.652Z,1.75
2022-10-01T12:50:14.683Z,1.82
2022-10-01T12:52:56.864Z,1.81
2022-10-01T12:55:39.345Z,2.25
2022-10-01T12:58:27.940Z,1.96
2022-10-01T13:01:05.854Z,1.71
2022-10-01T13:04:03.657Z,2.22
2022-10-01T13:06:48.083Z,2.85
2022-10-01T13:09:26.543Z,2.19
2022-10-01T13:12:16.445Z,2.05
2022-10-01T13:14:47.082Z,2.18
2022-10-01T13:17:24.942Z,2.19
2022-10-01T13:20:00.695Z,2.23
2022-10-01T13:22:37.406Z,2.12
2022-10-01T13:25:25.203Z,2.30
2022-10-01T13:28:01.982Z,2.30
2022-10-01T13:30:49.590Z,2.23
2022-10-01T13:33:25.344Z,2.23
2022-10-01T13:35:58.228Z,2.29
2022-10-01T13:38:39.474Z,2.36
2022-10-01T13:41:18.330Z,2.32
2022-10-01T13:43:52.866Z,2.36
2022-10-01T13:46:21.654Z,2.33
2022-10-01T13:48:51.491Z,2.33
2022-10-01T13:51:19.010Z,2.32
2022-10-01T13:53:53.364Z,2.15
2022-10-01T13:56:29.694Z,2.22
2022-10-01T13:58:57.038Z,2.20
2022-10-01T14:01:30.869Z,2.27
2022-10-01T14:04:07.191Z,2.64
2022-10-01T14:06:44.230Z,2.29
2022-10-01T14:09:17.157Z,2.24
2022-10-01T14:11:49.746Z,2.62
2022-10-01T14:14:23.607Z,2.45
2022-10-01T14:16:54.869Z,2.67
2022-10-01T14:19:26.226Z,2.19
2022-10-01T14:22:11.946Z,2.20
2022-10-01T14:24:57.686Z,2.10
2022-10-01T14:27:37.111Z,1.93
2022-10-01T14:30:10.967Z,1.94
2022-10-01T14:33:04.054Z,1.97
2022-10-01T14:35:37.030Z,2.03
2022-10-01T14:38:12.810Z,2.05
2022-10-01T14:40:42.852Z,2.03
2022-10-01T14:43:19.486Z,1.97
2022-10-01T14:45:51.745Z,2.07
2022-10-01T14:48:20.467Z,2.06
2022-10-01T14:50:51.345Z,2.08
2022-10-01T14:53:21.617Z,2.05
2022-10-01T14:55:52.991Z,2.17
2022-10-01T14:58:26.629Z,1.77
2022-10-01T15:00:56.591Z,2.11
2022-10-01T15:03:25.800Z,1.88
2022-10-01T15:06:04.008Z,1.95
2022-10-01T15:08:40.146Z,2.13
2022-10-01T15:11:12.091Z,2.07
2022-10-01T15:13:43.026Z,2.09
2022-10-01T15:16:14.517Z,1.98
2022-10-01T15:18:47.984Z,2.27
2022-10-01T15:21:20.146Z,2.31
2022-10-01T15:23:49.569Z,2.63
2022-10-01T15:26:22.548Z,3.30
2022-10-01T15:28:50.123Z,3.26
2022-10-01T15:31:17.502Z,4.45
2022-10-01T15:33:46.563Z,3.69
2022-10-01T15:36:17.314Z,2.36
2022-10-01T15:38:47.703Z,2.82
2022-10-01T15:41:33.290Z,7.02
2022-10-01T15:44:04.232Z,7.87
2022-10-01T15:46:34.237Z,5.48
2022-10-01T15:49:24.209Z,4.53
2022-10-01T15:51:59.687Z,6.65
2022-10-01T15:54:26.923Z,8.87
2022-10-01T15:56:54.063Z,7.11
2022-10-01T15:59:21.322Z,3.77
2022-10-01T16:01:48.445Z,2.48
2022-10-01T16:04:15.843Z,1.97
2022-10-01T16:06:47.761Z,1.81
2022-10-01T16:09:19.323Z,1.69
2022-10-01T16:11:54.858Z,2.18
2022-10-01T16:14:32.557Z,2.20
2022-10-01T16:17:27.578Z,2.15
2022-10-01T16:19:57.786Z,1.87
2022-10-01T16:22:29.224Z,1.87
2022-10-01T16:24:58.980Z,1.92
2022-10-01T16:27:28.920Z,1.57
2022-10-01T16:30:04.999Z,1.45
2022-10-01T16:32:33.660Z,1.35
2022-10-01T16:35:16.660Z,1.36
2022-10-01T16:37:46.523Z,1.83
2022-10-01T16:40:16.141Z,1.83
2022-10-01T16:42:45.580Z,1.78
2022-10-01T16:45:15.479Z,1.74
2022-10-01T16:47:42.604Z,1.70
2022-10-01T16:50:11.579Z,1.42
2022-10-01T16:52:38.800Z,2.41
2022-10-01T16:55:18.369Z,2.77
2022-10-01T16:57:45.459Z,2.65
2022-10-01T17:00:14.641Z,4.06
2022-10-01T17:02:41.759Z,3.89
2022-10-01T17:05:18.261Z,4.38
2022-10-01T17:07:45.560Z,4.16
2022-10-01T17:10:16.198Z,3.26
2022-10-01T17:12:43.731Z,2.52
2022-10-01T17:15:14.759Z,2.61
2022-10-01T17:17:42.379Z,2.97
2022-10-01T17:20:10.439Z,3.34
2022-10-01T17:22:38.320Z,3.29
2022-10-01T17:25:06.298Z,3.88
2022-10-01T17:27:34.740Z,3.45
2022-10-01T17:30:02.079Z,2.87
2022-10-01T17:32:29.160Z,2.42
2022-10-01T17:34:56.200Z,2.82
2022-10-01T17:37:23.280Z,3.10
2022-10-01T17:39:50.381Z,2.80
2022-10-01T17:42:17.477Z,2.63
2022-10-01T17:44:45.978Z,3.07
2022-10-01T17:47:13.039Z,2.99
2022-10-01T17:49:40.999Z,2.66
2022-10-01T17:52:08.139Z,2.96
2022-10-01T17:54:36.702Z,3.12
2022-10-01T17:57:04.539Z,3.30
2022-10-01T17:59:31.658Z,3.22
2022-10-01T18:02:00.101Z,3.02
2022-10-01T18:04:27.180Z,3.00
2022-10-01T18:06:57.921Z,3.59
2022-10-01T18:09:26.700Z,3.78
2022-10-01T18:11:53.730Z,2.68
2022-10-01T18:14:20.778Z,2.11
2022-10-01T18:16:48.011Z,2.37
2022-10-01T18:19:52.952Z,3.12
2022-10-01T18:22:13.157Z,6.29
2022-10-01T18:24:40.939Z,4.98
2022-10-01T18:27:08.319Z,3.31
2022-10-01T18:29:35.418Z,2.93
2022-10-01T18:32:12.510Z,3.07
2022-10-01T18:34:49.859Z,3.19
2022-10-01T18:37:28.364Z,2.63
2022-10-01T18:40:04.761Z,2.01
2022-10-01T18:42:44.288Z,2.86
2022-10-01T18:45:16.202Z,4.45
2022-10-01T18:47:58.660Z,4.66
2022-10-01T18:50:40.301Z,3.83
2022-10-01T18:53:29.120Z,3.85
2022-10-01T18:56:18.641Z,3.61
2022-10-01T18:59:34.420Z,2.94
2022-10-01T19:02:28.187Z,2.32
2022-10-01T19:05:33.452Z,2.42
2022-10-01T19:08:22.219Z,2.49
2022-10-01T19:10:58.502Z,2.57
2022-10-01T19:13:39.822Z,2.68
2022-10-01T19:16:20.251Z,3.53
2022-10-01T19:19:08.101Z,2.74
2022-10-01T19:21:48.099Z,2.76
2022-10-01T19:24:47.515Z,2.73
2022-10-01T19:27:36.667Z,2.70
2022-10-01T19:30:09.644Z,2.86
2022-10-01T19:32:44.204Z,2.60
2022-10-01T19:35:20.124Z,2.52
2022-10-01T19:37:52.083Z,2.70
2022-10-01T19:40:27.402Z,3.03
2022-10-01T19:43:06.565Z,3.00
2022-10-01T19:45:47.119Z,3.04
2022-10-01T19:48:20.089Z,2.58
2022-10-01T19:50:54.828Z,2.62
2022-10-01T19:53:27.122Z,2.55
2022-10-01T19:55:58.624Z,2.23
2022-10-01T19:58:27.842Z,2.40
2022-10-01T20:00:57.333Z,2.28
2022-10-01T20:03:36.287Z,2.42
2022-10-01T20:06:06.023Z,2.16
2022-10-01T20:08:41.910Z,2.02
2022-10-01T20:11:15.387Z,1.88
2022-10-01T20:14:08.609Z,1.90
2022-10-01T20:16:43.318Z,1.68
2022-10-01T20:19:22.525Z,2.04
2022-10-01T20:22:00.449Z,1.87
2022-10-01T20:24:47.749Z,2.07
2022-10-01T20:27:29.403Z,1.65
2022-10-01T20:30:05.322Z,1.65
2022-10-01T20:32:42.205Z,1.37
2022-10-01T20:35:27.666Z,1.61
2022-10-01T20:38:03.201Z,1.87
2022-10-01T20:40:37.593Z,1.83
2022-10-01T20:43:12.231Z,1.62
2022-10-01T20:45:41.069Z,1.67
2022-10-01T20:48:16.066Z,2.18
2022-10-01T20:50:46.303Z,2.16
2022-10-01T20:53:25.529Z,1.94
2022-10-01T20:55:58.662Z,1.56
2022-10-01T20:58:32.585Z,1.78
2022-10-01T21:01:07.900Z,2.04
2022-10-01T21:03:41.690Z,1.87
2022-10-01T21:06:16.407Z,1.92
2022-10-01T21:08:52.483Z,1.98
2022-10-01T21:11:30.635Z,1.88
2022-10-01T21:14:10.166Z,1.51
2022-10-01T21:16:59.170Z,1.21
2022-10-01T21:19:41.361Z,1.13
2022-10-01T21:22:26.862Z,1.45
2022-10-01T21:25:02.282Z,1.39
2022-10-01T21:28:08.623Z,1.39
2022-10-01T21:30:49.744Z,1.90
2022-10-01T21:33:25.763Z,1.25
2022-10-01T21:36:01.801Z,1.52
2022-10-01T21:38:40.683Z,1.53
2022-10-01T21:41:46.676Z,1.65
2022-10-01T21:44:54.903Z,2.05
2022-10-01T21:47:36.561Z,1.67
2022-10-01T21:50:20.002Z,1.48
2022-10-01T21:53:28.866Z,1.58
2022-10-01T21:56:14.646Z,1.73
2022-10-01T21:59:00.554Z,1.43
2022-10-01T22:01:47.499Z,1.59
2022-10-01T22:04:20.565Z,1.80
2022-10-01T22:06:57.142Z,1.86
2022-10-01T22:09:40.621Z,2.29
2022-10-01T22:12:08.622Z,2.49
2022-10-01T22:14:35.826Z,2.62
2022-10-01T22:17:13.722Z,3.90
2022-10-01T22:19:48.722Z,5.11
2022-10-01T22:22:22.623Z,3.37
2022-10-01T22:24:52.701Z,3.99
2022-10-01T22:27:25.986Z,4.41
2022-10-01T22:29:59.368Z,6.44
2022-10-01T22:32:33.368Z,4.25
2022-10-01T22:35:09.030Z,3.18
2022-10-01T22:37:43.490Z,2.94
2022-10-01T22:40:17.472Z,3.94
2022-10-01T22:42:53.131Z,5.17
2022-10-01T22:45:29.691Z,4.44
2022-10-01T22:48:17.352Z,3.89
2022-10-01T22:51:03.030Z,2.59
2022-10-01T22:53:56.659Z,2.48
2022-10-01T22:56:34.179Z,2.17
2022-10-01T22:59:16.212Z,2.74
2022-10-01T23:01:57.389Z,2.52
2022-10-01T23:04:40.631Z,2.46
2022-10-01T23:07:23.611Z,2.26
2022-10-01T23:09:59.956Z,2.52
2022-10-01T23:12:38.632Z,2.32
2022-10-01T23:15:19.478Z,2.32
2022-10-01T23:17:57.911Z,2.28
2022-10-01T23:20:33.171Z,2.29
2022-10-01T23:23:26.966Z,2.92
2022-10-01T23:26:14.330Z,2.29
2022-10-01T23:28:57.891Z,1.98
2022-10-01T23:31:36.577Z,1.89
2022-10-01T23:34:24.870Z,1.88
2022-10-01T23:37:05.650Z,1.92
2022-10-01T23:39:47.356Z,1.92
2022-10-01T23:42:37.694Z,3.30
2022-10-01T23:45:19.011Z,3.32
2022-10-01T23:47:58.086Z,2.72
2022-10-01T23:50:32.912Z,2.45
2022-10-01T23:53:15.442Z,2.36
2022-10-01T23:55:49.610Z,2.15
2022-10-01T23:58:22.829Z,2.10
